sensor_id;sensor_type;location;lat;lon;timestamp;temperature;humidity
9847;DHT22;4962;50.084;8.794;2022-12-11T00:02:07;6.00;99.90
9847;DHT22;4962;50.084;8.794;2022-12-11T00:04:34;6.00;99.90
9847;DHT22;4962;50.084;8.794;2022-12-11T00:07:02;6.00;99.90
9847;DHT22;4962;50.084;8.794;2022-12-11T00:09:29;6.00;99.90
9847;DHT22;4962;50.084;8.794;2022-12-11T00:11:56;6.10;99.90
9847;DHT22;4962;50.084;8.794;2022-12-11T00:14:23;6.10;99.90
9847;DHT22;4962;50.084;8.794;2022-12-11T00:16:50;6.10;99.90
9847;DHT22;4962;50.084;8.794;2022-12-11T00:19:17;6.10;99.90
9847;DHT22;4962;50.084;8.794;2022-12-11T00:21:44;6.00;99.90
9847;DHT22;4962;50.084;8.794;2022-12-11T00:24:12;6.00;99.90
9847;DHT22;4962;50.084;8.794;2022-12-11T00:26:39;6.10;99.90
9847;DHT22;4962;50.084;8.794;2022-12-11T00:29:06;6.10;99.90
9847;DHT22;4962;50.084;8.794;2022-12-11T00:31:35;6.00;99.90
9847;DHT22;4962;50.084;8.794;2022-12-11T00:34:02;6.00;99.90
9847;DHT22;4962;50.084;8.794;2022-12-11T00:36:29;6.00;99.90
9847;DHT22;4962;50.084;8.794;2022-12-11T00:38:56;6.00;99.90
9847;DHT22;4962;50.084;8.794;2022-12-11T00:41:24;6.00;99.90
9847;DHT22;4962;50.084;8.794;2022-12-11T00:43:51;6.00;99.90
9847;DHT22;4962;50.084;8.794;2022-12-11T00:46:18;6.00;99.90
9847;DHT22;4962;50.084;8.794;2022-12-11T00:48:45;6.00;99.90
9847;DHT22;4962;50.084;8.794;2022-12-11T00:51:14;6.00;99.90
9847;DHT22;4962;50.084;8.794;2022-12-11T00:53:41;6.00;99.90
9847;DHT22;4962;50.084;8.794;2022-12-11T00:56:10;6.00;99.90
9847;DHT22;4962;50.084;8.794;2022-12-11T00:58:38;6.00;99.90
9847;DHT22;4962;50.084;8.794;2022-12-11T01:01:07;6.00;99.90
9847;DHT22;4962;50.084;8.794;2022-12-11T01:03:34;5.90;99.90
9847;DHT22;4962;50.084;8.794;2022-12-11T01:06:02;5.90;99.90
9847;DHT22;4962;50.084;8.794;2022-12-11T01:08:29;5.90;99.90
9847;DHT22;4962;50.084;8.794;2022-12-11T01:11:03;5.90;99.90
9847;DHT22;4962;50.084;8.794;2022-12-11T01:13:30;5.90;99.90
9847;DHT22;4962;50.084;8.794;2022-12-11T01:15:58;5.90;99.90
9847;DHT22;4962;50.084;8.794;2022-12-11T01:18:25;6.00;99.90
9847;DHT22;4962;50.084;8.794;2022-12-11T01:20:52;6.00;99.90
9847;DHT22;4962;50.084;8.794;2022-12-11T01:23:19;6.00;99.90
9847;DHT22;4962;50.084;8.794;2022-12-11T01:25:46;6.00;99.90
9847;DHT22;4962;50.084;8.794;2022-12-11T01:28:12;6.00;99.90
9847;DHT22;4962;50.084;8.794;2022-12-11T01:30:41;6.00;99.90
9847;DHT22;4962;50.084;8.794;2022-12-11T01:33:09;6.00;99.90
9847;DHT22;4962;50.084;8.794;2022-12-11T01:35:38;6.00;99.90
9847;DHT22;4962;50.084;8.794;2022-12-11T01:38:05;5.90;99.90
9847;DHT22;4962;50.084;8.794;2022-12-11T01:40:31;6.00;99.90
9847;DHT22;4962;50.084;8.794;2022-12-11T01:42:58;6.00;99.90
9847;DHT22;4962;50.084;8.794;2022-12-11T01:45:32;6.00;99.90
9847;DHT22;4962;50.084;8.794;2022-12-11T01:48:03;6.00;99.90
9847;DHT22;4962;50.084;8.794;2022-12-11T01:50:36;6.00;99.90
9847;DHT22;4962;50.084;8.794;2022-12-11T01:53:06;6.00;99.90
9847;DHT22;4962;50.084;8.794;2022-12-11T01:55:34;6.00;99.90
9847;DHT22;4962;50.084;8.794;2022-12-11T01:58:03;6.00;99.90
9847;DHT22;4962;50.084;8.794;2022-12-11T02:00:31;5.90;99.90
9847;DHT22;4962;50.084;8.794;2022-12-11T02:02:58;5.90;99.90
9847;DHT22;4962;50.084;8.794;2022-12-11T02:05:24;5.90;99.90
9847;DHT22;4962;50.084;8.794;2022-12-11T02:07:55;5.90;99.90
9847;DHT22;4962;50.084;8.794;2022-12-11T02:10:29;5.90;99.90
9847;DHT22;4962;50.084;8.794;2022-12-11T02:13:01;5.90;99.90
9847;DHT22;4962;50.084;8.794;2022-12-11T02:15:33;5.90;99.90
9847;DHT22;4962;50.084;8.794;2022-12-11T02:18:12;5.90;99.90
9847;DHT22;4962;50.084;8.794;2022-12-11T02:20:42;5.90;99.90
9847;DHT22;4962;50.084;8.794;2022-12-11T02:23:50;6.00;99.90
9847;DHT22;4962;50.084;8.794;2022-12-11T02:29:28;5.90;99.90
9847;DHT22;4962;50.084;8.794;2022-12-11T02:31:59;5.90;99.90
9847;DHT22;4962;50.084;8.794;2022-12-11T02:34:31;5.90;99.90
9847;DHT22;4962;50.084;8.794;2022-12-11T02:37:03;5.90;99.90
9847;DHT22;4962;50.084;8.794;2022-12-11T02:39:32;6.00;99.90
9847;DHT22;4962;50.084;8.794;2022-12-11T02:42:02;6.00;99.90
9847;DHT22;4962;50.084;8.794;2022-12-11T02:44:33;6.00;99.90
9847;DHT22;4962;50.084;8.794;2022-12-11T02:47:03;6.00;99.90
9847;DHT22;4962;50.084;8.794;2022-12-11T02:49:31;6.00;99.90
9847;DHT22;4962;50.084;8.794;2022-12-11T02:52:00;6.00;99.90
9847;DHT22;4962;50.084;8.794;2022-12-11T02:54:32;6.00;99.90
9847;DHT22;4962;50.084;8.794;2022-12-11T02:57:03;6.00;99.90
9847;DHT22;4962;50.084;8.794;2022-12-11T02:59:35;6.00;99.90
9847;DHT22;4962;50.084;8.794;2022-12-11T03:02:04;6.00;99.90
9847;DHT22;4962;50.084;8.794;2022-12-11T03:04:33;6.00;99.90
9847;DHT22;4962;50.084;8.794;2022-12-11T03:07:02;6.00;99.90
9847;DHT22;4962;50.084;8.794;2022-12-11T03:09:37;6.00;99.90
9847;DHT22;4962;50.084;8.794;2022-12-11T03:12:07;6.00;99.90
9847;DHT22;4962;50.084;8.794;2022-12-11T03:14:37;6.00;99.90
9847;DHT22;4962;50.084;8.794;2022-12-11T03:17:11;6.00;99.90
9847;DHT22;4962;50.084;8.794;2022-12-11T03:19:42;6.00;99.90
9847;DHT22;4962;50.084;8.794;2022-12-11T03:22:16;6.00;99.90
9847;DHT22;4962;50.084;8.794;2022-12-11T03:24:46;6.10;99.90
9847;DHT22;4962;50.084;8.794;2022-12-11T03:27:21;6.10;99.90
9847;DHT22;4962;50.084;8.794;2022-12-11T03:29:56;6.10;99.90
9847;DHT22;4962;50.084;8.794;2022-12-11T03:32:26;6.10;99.90
9847;DHT22;4962;50.084;8.794;2022-12-11T03:34:58;6.10;99.90
9847;DHT22;4962;50.084;8.794;2022-12-11T03:37:41;6.10;99.90
9847;DHT22;4962;50.084;8.794;2022-12-11T03:40:12;6.10;99.90
9847;DHT22;4962;50.084;8.794;2022-12-11T03:42:40;6.10;99.90
9847;DHT22;4962;50.084;8.794;2022-12-11T03:45:10;6.10;99.90
9847;DHT22;4962;50.084;8.794;2022-12-11T03:47:38;6.10;99.90
9847;DHT22;4962;50.084;8.794;2022-12-11T03:50:09;6.10;99.90
9847;DHT22;4962;50.084;8.794;2022-12-11T03:52:38;6.10;99.90
9847;DHT22;4962;50.084;8.794;2022-12-11T03:55:07;6.20;99.90
9847;DHT22;4962;50.084;8.794;2022-12-11T03:57:36;6.20;99.90
9847;DHT22;4962;50.084;8.794;2022-12-11T04:00:04;6.20;99.90
9847;DHT22;4962;50.084;8.794;2022-12-11T04:02:32;6.20;99.90
9847;DHT22;4962;50.084;8.794;2022-12-11T04:04:59;6.20;99.90
9847;DHT22;4962;50.084;8.794;2022-12-11T04:07:26;6.20;99.90
9847;DHT22;4962;50.084;8.794;2022-12-11T04:09:53;6.20;99.90
9847;DHT22;4962;50.084;8.794;2022-12-11T04:12:19;6.20;99.90
9847;DHT22;4962;50.084;8.794;2022-12-11T04:14:47;6.20;99.90
9847;DHT22;4962;50.084;8.794;2022-12-11T04:17:27;6.30;99.90
9847;DHT22;4962;50.084;8.794;2022-12-11T04:20:13;6.30;99.90
9847;DHT22;4962;50.084;8.794;2022-12-11T04:22:57;6.30;99.90
9847;DHT22;4962;50.084;8.794;2022-12-11T04:25:44;6.30;99.90
9847;DHT22;4962;50.084;8.794;2022-12-11T04:28:11;6.30;99.90
9847;DHT22;4962;50.084;8.794;2022-12-11T04:30:38;6.40;99.90
9847;DHT22;4962;50.084;8.794;2022-12-11T04:33:05;6.40;99.90
9847;DHT22;4962;50.084;8.794;2022-12-11T04:35:33;6.40;99.90
9847;DHT22;4962;50.084;8.794;2022-12-11T04:38:00;6.40;99.90
9847;DHT22;4962;50.084;8.794;2022-12-11T04:40:27;6.40;99.90
9847;DHT22;4962;50.084;8.794;2022-12-11T04:42:53;6.40;99.90
9847;DHT22;4962;50.084;8.794;2022-12-11T04:45:20;6.40;99.90
9847;DHT22;4962;50.084;8.794;2022-12-11T04:47:47;6.40;99.90
9847;DHT22;4962;50.084;8.794;2022-12-11T04:50:15;6.40;99.90
9847;DHT22;4962;50.084;8.794;2022-12-11T04:52:43;6.40;99.90
9847;DHT22;4962;50.084;8.794;2022-12-11T04:55:11;6.50;99.90
9847;DHT22;4962;50.084;8.794;2022-12-11T04:57:38;6.50;99.90
9847;DHT22;4962;50.084;8.794;2022-12-11T05:00:06;6.50;99.90
9847;DHT22;4962;50.084;8.794;2022-12-11T05:02:35;6.50;99.90
9847;DHT22;4962;50.084;8.794;2022-12-11T05:05:03;6.50;99.90
9847;DHT22;4962;50.084;8.794;2022-12-11T05:07:30;6.50;99.90
9847;DHT22;4962;50.084;8.794;2022-12-11T05:09:58;6.50;99.90
9847;DHT22;4962;50.084;8.794;2022-12-11T05:12:32;6.60;99.90
9847;DHT22;4962;50.084;8.794;2022-12-11T05:14:58;6.50;99.90
9847;DHT22;4962;50.084;8.794;2022-12-11T05:17:25;6.50;99.90
9847;DHT22;4962;50.084;8.794;2022-12-11T05:19:52;6.50;99.90
9847;DHT22;4962;50.084;8.794;2022-12-11T05:22:19;6.50;99.90
9847;DHT22;4962;50.084;8.794;2022-12-11T05:24:46;6.50;99.90
9847;DHT22;4962;50.084;8.794;2022-12-11T05:27:14;6.50;99.90
9847;DHT22;4962;50.084;8.794;2022-12-11T05:29:41;6.50;99.90
9847;DHT22;4962;50.084;8.794;2022-12-11T05:32:08;6.40;99.90
9847;DHT22;4962;50.084;8.794;2022-12-11T05:34:35;6.50;99.90
9847;DHT22;4962;50.084;8.794;2022-12-11T05:37:02;6.50;99.90
9847;DHT22;4962;50.084;8.794;2022-12-11T05:39:29;6.50;99.90
9847;DHT22;4962;50.084;8.794;2022-12-11T05:41:56;6.50;99.90
9847;DHT22;4962;50.084;8.794;2022-12-11T05:44:24;6.50;99.90
9847;DHT22;4962;50.084;8.794;2022-12-11T05:46:51;6.50;99.90
9847;DHT22;4962;50.084;8.794;2022-12-11T05:49:18;6.50;99.90
9847;DHT22;4962;50.084;8.794;2022-12-11T05:51:45;6.60;99.90
9847;DHT22;4962;50.084;8.794;2022-12-11T05:54:13;6.60;99.90
9847;DHT22;4962;50.084;8.794;2022-12-11T05:56:40;6.60;99.90
9847;DHT22;4962;50.084;8.794;2022-12-11T05:59:06;6.60;99.90
9847;DHT22;4962;50.084;8.794;2022-12-11T06:01:37;6.60;99.90
9847;DHT22;4962;50.084;8.794;2022-12-11T06:04:05;6.60;99.90
9847;DHT22;4962;50.084;8.794;2022-12-11T06:06:33;6.70;99.90
9847;DHT22;4962;50.084;8.794;2022-12-11T06:09:01;6.70;99.90
9847;DHT22;4962;50.084;8.794;2022-12-11T06:11:30;6.70;99.90
9847;DHT22;4962;50.084;8.794;2022-12-11T06:13:58;6.70;99.90
9847;DHT22;4962;50.084;8.794;2022-12-11T06:16:25;6.70;99.90
9847;DHT22;4962;50.084;8.794;2022-12-11T06:18:53;6.70;99.90
9847;DHT22;4962;50.084;8.794;2022-12-11T06:21:22;6.70;99.90
9847;DHT22;4962;50.084;8.794;2022-12-11T06:23:51;6.80;99.90
9847;DHT22;4962;50.084;8.794;2022-12-11T06:26:19;6.70;99.90
9847;DHT22;4962;50.084;8.794;2022-12-11T06:28:47;6.70;99.90
9847;DHT22;4962;50.084;8.794;2022-12-11T06:31:15;6.70;99.90
9847;DHT22;4962;50.084;8.794;2022-12-11T06:33:42;6.70;99.90
9847;DHT22;4962;50.084;8.794;2022-12-11T06:36:13;6.70;99.90
9847;DHT22;4962;50.084;8.794;2022-12-11T06:38:40;6.70;99.90
9847;DHT22;4962;50.084;8.794;2022-12-11T06:41:08;6.70;99.90
9847;DHT22;4962;50.084;8.794;2022-12-11T06:43:36;6.70;99.90
9847;DHT22;4962;50.084;8.794;2022-12-11T06:46:05;6.70;99.90
9847;DHT22;4962;50.084;8.794;2022-12-11T06:48:33;6.70;99.90
9847;DHT22;4962;50.084;8.794;2022-12-11T06:51:04;6.70;99.90
9847;DHT22;4962;50.084;8.794;2022-12-11T06:53:33;6.70;99.90
9847;DHT22;4962;50.084;8.794;2022-12-11T06:56:04;6.80;99.90
9847;DHT22;4962;50.084;8.794;2022-12-11T06:58:33;6.70;99.90
9847;DHT22;4962;50.084;8.794;2022-12-11T07:01:00;6.70;99.90
9847;DHT22;4962;50.084;8.794;2022-12-11T07:03:27;6.70;99.90
9847;DHT22;4962;50.084;8.794;2022-12-11T07:05:59;6.60;99.90
9847;DHT22;4962;50.084;8.794;2022-12-11T07:08:26;6.70;99.90
9847;DHT22;4962;50.084;8.794;2022-12-11T07:11:01;6.60;99.90
9847;DHT22;4962;50.084;8.794;2022-12-11T07:13:28;6.70;99.90
9847;DHT22;4962;50.084;8.794;2022-12-11T07:15:56;6.70;99.90
9847;DHT22;4962;50.084;8.794;2022-12-11T07:18:23;6.70;99.90
9847;DHT22;4962;50.084;8.794;2022-12-11T07:20:50;6.70;99.90
9847;DHT22;4962;50.084;8.794;2022-12-11T07:23:17;6.70;99.90
9847;DHT22;4962;50.084;8.794;2022-12-11T07:25:44;6.70;99.90
9847;DHT22;4962;50.084;8.794;2022-12-11T07:28:12;6.60;99.90
9847;DHT22;4962;50.084;8.794;2022-12-11T07:30:39;6.60;99.90
9847;DHT22;4962;50.084;8.794;2022-12-11T07:33:06;6.50;99.90
9847;DHT22;4962;50.084;8.794;2022-12-11T07:35:33;6.50;99.90
9847;DHT22;4962;50.084;8.794;2022-12-11T07:38:00;6.50;99.90
9847;DHT22;4962;50.084;8.794;2022-12-11T07:40:27;6.50;99.90
9847;DHT22;4962;50.084;8.794;2022-12-11T07:42:54;6.50;99.90
9847;DHT22;4962;50.084;8.794;2022-12-11T07:45:22;6.50;99.90
9847;DHT22;4962;50.084;8.794;2022-12-11T07:47:50;6.60;99.90
9847;DHT22;4962;50.084;8.794;2022-12-11T07:50:18;6.60;99.90
9847;DHT22;4962;50.084;8.794;2022-12-11T07:52:45;6.60;99.90
9847;DHT22;4962;50.084;8.794;2022-12-11T07:55:11;6.60;99.90
9847;DHT22;4962;50.084;8.794;2022-12-11T07:57:39;6.60;99.90
9847;DHT22;4962;50.084;8.794;2022-12-11T08:00:07;6.60;99.90
9847;DHT22;4962;50.084;8.794;2022-12-11T08:02:36;6.60;99.90
9847;DHT22;4962;50.084;8.794;2022-12-11T08:05:04;6.60;99.90
9847;DHT22;4962;50.084;8.794;2022-12-11T08:07:54;6.70;99.90
9847;DHT22;4962;50.084;8.794;2022-12-11T08:10:21;6.70;99.90
9847;DHT22;4962;50.084;8.794;2022-12-11T08:12:48;6.70;99.90
9847;DHT22;4962;50.084;8.794;2022-12-11T08:15:15;6.70;99.90
9847;DHT22;4962;50.084;8.794;2022-12-11T08:17:43;6.80;99.90
9847;DHT22;4962;50.084;8.794;2022-12-11T08:20:10;6.80;99.90
9847;DHT22;4962;50.084;8.794;2022-12-11T08:22:37;6.80;99.90
9847;DHT22;4962;50.084;8.794;2022-12-11T08:25:04;6.80;99.90
9847;DHT22;4962;50.084;8.794;2022-12-11T08:27:31;6.70;99.90
9847;DHT22;4962;50.084;8.794;2022-12-11T08:29:58;6.70;99.90
9847;DHT22;4962;50.084;8.794;2022-12-11T08:32:25;6.70;99.90
9847;DHT22;4962;50.084;8.794;2022-12-11T08:34:53;6.70;99.90
9847;DHT22;4962;50.084;8.794;2022-12-11T08:37:20;6.70;99.90
9847;DHT22;4962;50.084;8.794;2022-12-11T08:39:47;6.70;99.90
9847;DHT22;4962;50.084;8.794;2022-12-11T08:42:14;6.70;99.90
9847;DHT22;4962;50.084;8.794;2022-12-11T08:44:43;6.70;99.90
9847;DHT22;4962;50.084;8.794;2022-12-11T08:47:10;6.70;99.90
9847;DHT22;4962;50.084;8.794;2022-12-11T08:49:37;6.60;99.90
9847;DHT22;4962;50.084;8.794;2022-12-11T08:52:06;6.70;99.90
9847;DHT22;4962;50.084;8.794;2022-12-11T08:54:32;6.60;99.90
9847;DHT22;4962;50.084;8.794;2022-12-11T08:56:59;6.60;99.90
9847;DHT22;4962;50.084;8.794;2022-12-11T08:59:26;6.60;99.90
9847;DHT22;4962;50.084;8.794;2022-12-11T09:01:54;6.60;99.90
9847;DHT22;4962;50.084;8.794;2022-12-11T09:04:21;6.60;99.90
9847;DHT22;4962;50.084;8.794;2022-12-11T09:06:48;6.60;99.90
9847;DHT22;4962;50.084;8.794;2022-12-11T09:09:17;6.60;99.90
9847;DHT22;4962;50.084;8.794;2022-12-11T09:11:45;6.60;99.90
9847;DHT22;4962;50.084;8.794;2022-12-11T09:14:11;6.60;99.90
9847;DHT22;4962;50.084;8.794;2022-12-11T09:16:41;6.60;99.90
9847;DHT22;4962;50.084;8.794;2022-12-11T09:19:11;6.60;99.90
9847;DHT22;4962;50.084;8.794;2022-12-11T09:21:39;6.60;99.90
9847;DHT22;4962;50.084;8.794;2022-12-11T09:24:07;6.60;99.90
9847;DHT22;4962;50.084;8.794;2022-12-11T09:26:37;6.60;99.90
9847;DHT22;4962;50.084;8.794;2022-12-11T09:29:05;6.60;99.90
9847;DHT22;4962;50.084;8.794;2022-12-11T09:31:33;6.60;99.90
9847;DHT22;4962;50.084;8.794;2022-12-11T09:34:03;6.60;99.90
9847;DHT22;4962;50.084;8.794;2022-12-11T09:36:31;6.70;99.90
9847;DHT22;4962;50.084;8.794;2022-12-11T09:39:01;6.70;99.90
9847;DHT22;4962;50.084;8.794;2022-12-11T09:41:37;6.70;99.90
9847;DHT22;4962;50.084;8.794;2022-12-11T09:44:22;6.70;99.90
9847;DHT22;4962;50.084;8.794;2022-12-11T09:46:50;6.70;99.90
9847;DHT22;4962;50.084;8.794;2022-12-11T09:49:25;6.80;99.90
9847;DHT22;4962;50.084;8.794;2022-12-11T09:51:59;6.80;99.90
9847;DHT22;4962;50.084;8.794;2022-12-11T09:54:29;6.80;99.90
9847;DHT22;4962;50.084;8.794;2022-12-11T09:57:03;6.80;99.90
9847;DHT22;4962;50.084;8.794;2022-12-11T09:59:42;6.90;99.90
9847;DHT22;4962;50.084;8.794;2022-12-11T10:02:23;6.80;99.90
9847;DHT22;4962;50.084;8.794;2022-12-11T10:05:01;6.80;99.90
9847;DHT22;4962;50.084;8.794;2022-12-11T10:07:35;6.90;99.90
9847;DHT22;4962;50.084;8.794;2022-12-11T10:10:09;6.90;99.90
9847;DHT22;4962;50.084;8.794;2022-12-11T10:12:47;6.90;99.90
9847;DHT22;4962;50.084;8.794;2022-12-11T10:15:25;6.90;99.90
9847;DHT22;4962;50.084;8.794;2022-12-11T10:17:56;6.90;99.90
9847;DHT22;4962;50.084;8.794;2022-12-11T10:20:27;6.90;99.90
9847;DHT22;4962;50.084;8.794;2022-12-11T10:22:56;7.00;99.90
9847;DHT22;4962;50.084;8.794;2022-12-11T10:25:26;7.00;99.90
9847;DHT22;4962;50.084;8.794;2022-12-11T10:27:56;6.90;99.90
9847;DHT22;4962;50.084;8.794;2022-12-11T10:30:24;7.00;99.90
9847;DHT22;4962;50.084;8.794;2022-12-11T10:32:53;7.00;99.90
9847;DHT22;4962;50.084;8.794;2022-12-11T10:35:34;7.00;99.90
9847;DHT22;4962;50.084;8.794;2022-12-11T10:38:11;7.00;99.90
9847;DHT22;4962;50.084;8.794;2022-12-11T10:40:43;7.00;99.90
9847;DHT22;4962;50.084;8.794;2022-12-11T10:43:11;7.00;99.90
9847;DHT22;4962;50.084;8.794;2022-12-11T10:45:38;7.00;99.90
9847;DHT22;4962;50.084;8.794;2022-12-11T10:48:10;7.00;99.90
9847;DHT22;4962;50.084;8.794;2022-12-11T10:50:37;6.90;99.90
9847;DHT22;4962;50.084;8.794;2022-12-11T10:53:05;6.90;99.90
9847;DHT22;4962;50.084;8.794;2022-12-11T10:55:42;6.90;99.90
9847;DHT22;4962;50.084;8.794;2022-12-11T10:58:17;6.90;99.90
9847;DHT22;4962;50.084;8.794;2022-12-11T11:00:45;6.90;99.90
9847;DHT22;4962;50.084;8.794;2022-12-11T11:03:20;6.80;99.90
9847;DHT22;4962;50.084;8.794;2022-12-11T11:05:48;6.90;99.90
9847;DHT22;4962;50.084;8.794;2022-12-11T11:08:18;6.80;99.90
9847;DHT22;4962;50.084;8.794;2022-12-11T11:10:50;6.90;99.90
9847;DHT22;4962;50.084;8.794;2022-12-11T11:13:20;6.90;99.90
9847;DHT22;4962;50.084;8.794;2022-12-11T11:15:48;6.90;99.90
9847;DHT22;4962;50.084;8.794;2022-12-11T11:18:19;6.90;99.90
9847;DHT22;4962;50.084;8.794;2022-12-11T11:20:50;6.90;99.90
9847;DHT22;4962;50.084;8.794;2022-12-11T11:23:18;7.00;99.90
9847;DHT22;4962;50.084;8.794;2022-12-11T11:25:51;7.00;99.90
9847;DHT22;4962;50.084;8.794;2022-12-11T11:28:24;7.00;99.90
9847;DHT22;4962;50.084;8.794;2022-12-11T11:31:03;7.10;99.90
9847;DHT22;4962;50.084;8.794;2022-12-11T11:33:32;7.00;99.90
9847;DHT22;4962;50.084;8.794;2022-12-11T11:36:01;7.10;99.90
9847;DHT22;4962;50.084;8.794;2022-12-11T11:38:31;7.10;99.90
9847;DHT22;4962;50.084;8.794;2022-12-11T11:41:11;7.10;99.90
9847;DHT22;4962;50.084;8.794;2022-12-11T11:43:45;7.00;99.90
9847;DHT22;4962;50.084;8.794;2022-12-11T11:46:16;7.10;99.90
9847;DHT22;4962;50.084;8.794;2022-12-11T11:48:52;7.00;99.90
9847;DHT22;4962;50.084;8.794;2022-12-11T11:51:26;7.00;99.90
9847;DHT22;4962;50.084;8.794;2022-12-11T11:53:58;7.10;99.90
9847;DHT22;4962;50.084;8.794;2022-12-11T11:56:30;7.10;99.90
9847;DHT22;4962;50.084;8.794;2022-12-11T11:59:05;7.10;99.90
9847;DHT22;4962;50.084;8.794;2022-12-11T12:01:37;7.10;99.90
9847;DHT22;4962;50.084;8.794;2022-12-11T12:04:06;7.10;99.90
9847;DHT22;4962;50.084;8.794;2022-12-11T12:06:51;7.20;99.90
9847;DHT22;4962;50.084;8.794;2022-12-11T12:09:29;7.20;99.90
9847;DHT22;4962;50.084;8.794;2022-12-11T12:12:12;7.20;99.90
9847;DHT22;4962;50.084;8.794;2022-12-11T12:14:57;7.20;99.90
9847;DHT22;4962;50.084;8.794;2022-12-11T12:17:31;7.30;99.90
9847;DHT22;4962;50.084;8.794;2022-12-11T12:20:09;7.30;99.90
9847;DHT22;4962;50.084;8.794;2022-12-11T12:22:51;7.40;99.90
9847;DHT22;4962;50.084;8.794;2022-12-11T12:25:27;7.40;99.90
9847;DHT22;4962;50.084;8.794;2022-12-11T12:28:02;7.50;99.90
9847;DHT22;4962;50.084;8.794;2022-12-11T12:30:45;7.50;99.90
9847;DHT22;4962;50.084;8.794;2022-12-11T12:33:25;7.50;99.90
9847;DHT22;4962;50.084;8.794;2022-12-11T12:36:01;7.50;99.90
9847;DHT22;4962;50.084;8.794;2022-12-11T12:38:36;7.50;99.90
9847;DHT22;4962;50.084;8.794;2022-12-11T12:41:13;7.60;99.90
9847;DHT22;4962;50.084;8.794;2022-12-11T12:43:56;7.60;99.90
9847;DHT22;4962;50.084;8.794;2022-12-11T12:46:37;7.60;99.90
9847;DHT22;4962;50.084;8.794;2022-12-11T12:49:28;7.60;99.90
9847;DHT22;4962;50.084;8.794;2022-12-11T12:51:56;7.60;99.90
9847;DHT22;4962;50.084;8.794;2022-12-11T12:54:24;7.60;99.90
9847;DHT22;4962;50.084;8.794;2022-12-11T12:56:52;7.60;99.90
9847;DHT22;4962;50.084;8.794;2022-12-11T12:59:22;7.50;99.90
9847;DHT22;4962;50.084;8.794;2022-12-11T13:01:54;7.50;99.90
9847;DHT22;4962;50.084;8.794;2022-12-11T13:04:33;7.50;99.90
9847;DHT22;4962;50.084;8.794;2022-12-11T13:07:10;7.50;99.90
9847;DHT22;4962;50.084;8.794;2022-12-11T13:09:38;7.50;99.90
9847;DHT22;4962;50.084;8.794;2022-12-11T13:12:12;7.50;99.90
9847;DHT22;4962;50.084;8.794;2022-12-11T13:14:40;7.50;99.90
9847;DHT22;4962;50.084;8.794;2022-12-11T13:20:16;7.40;99.90
9847;DHT22;4962;50.084;8.794;2022-12-11T13:25:48;7.50;99.90
9847;DHT22;4962;50.084;8.794;2022-12-11T13:28:23;7.50;99.90
9847;DHT22;4962;50.084;8.794;2022-12-11T13:31:23;7.50;99.90
9847;DHT22;4962;50.084;8.794;2022-12-11T13:33:55;7.40;99.90
9847;DHT22;4962;50.084;8.794;2022-12-11T13:36:28;7.40;99.90
9847;DHT22;4962;50.084;8.794;2022-12-11T13:38:59;7.40;99.90
9847;DHT22;4962;50.084;8.794;2022-12-11T13:41:27;7.40;99.90
9847;DHT22;4962;50.084;8.794;2022-12-11T13:43:54;7.40;99.90
9847;DHT22;4962;50.084;8.794;2022-12-11T13:46:25;7.40;99.90
9847;DHT22;4962;50.084;8.794;2022-12-11T13:48:54;7.20;99.90
9847;DHT22;4962;50.084;8.794;2022-12-11T13:51:28;7.10;99.90
9847;DHT22;4962;50.084;8.794;2022-12-11T13:54:04;7.10;99.90
9847;DHT22;4962;50.084;8.794;2022-12-11T13:56:30;7.10;99.90
9847;DHT22;4962;50.084;8.794;2022-12-11T13:58:58;7.00;99.90
9847;DHT22;4962;50.084;8.794;2022-12-11T14:01:26;7.00;99.90
9847;DHT22;4962;50.084;8.794;2022-12-11T14:03:57;7.00;99.90
9847;DHT22;4962;50.084;8.794;2022-12-11T14:06:27;7.00;99.90
9847;DHT22;4962;50.084;8.794;2022-12-11T14:08:58;7.00;99.90
9847;DHT22;4962;50.084;8.794;2022-12-11T14:11:28;7.10;99.90
9847;DHT22;4962;50.084;8.794;2022-12-11T14:13:57;7.00;99.90
9847;DHT22;4962;50.084;8.794;2022-12-11T14:16:46;7.10;99.90
9847;DHT22;4962;50.084;8.794;2022-12-11T14:19:15;7.10;99.90
9847;DHT22;4962;50.084;8.794;2022-12-11T14:22:00;7.10;99.90
9847;DHT22;4962;50.084;8.794;2022-12-11T14:24:28;7.20;99.90
9847;DHT22;4962;50.084;8.794;2022-12-11T14:27:15;7.10;99.90
9847;DHT22;4962;50.084;8.794;2022-12-11T14:29:42;7.20;99.90
9847;DHT22;4962;50.084;8.794;2022-12-11T14:32:22;7.30;99.90
9847;DHT22;4962;50.084;8.794;2022-12-11T14:34:51;7.30;99.90
9847;DHT22;4962;50.084;8.794;2022-12-11T14:37:22;7.30;99.90
9847;DHT22;4962;50.084;8.794;2022-12-11T14:39:56;7.40;99.90
9847;DHT22;4962;50.084;8.794;2022-12-11T14:42:28;7.40;99.90
9847;DHT22;4962;50.084;8.794;2022-12-11T14:44:58;7.40;99.90
9847;DHT22;4962;50.084;8.794;2022-12-11T14:47:29;7.40;99.90
9847;DHT22;4962;50.084;8.794;2022-12-11T14:50:02;7.40;99.90
9847;DHT22;4962;50.084;8.794;2022-12-11T14:52:34;7.40;99.90
9847;DHT22;4962;50.084;8.794;2022-12-11T14:55:07;7.40;99.90
9847;DHT22;4962;50.084;8.794;2022-12-11T14:57:35;7.40;99.90
9847;DHT22;4962;50.084;8.794;2022-12-11T15:00:03;7.30;99.90
9847;DHT22;4962;50.084;8.794;2022-12-11T15:02:39;7.40;99.90
9847;DHT22;4962;50.084;8.794;2022-12-11T15:05:14;7.40;99.90
9847;DHT22;4962;50.084;8.794;2022-12-11T15:07:54;7.40;99.90
9847;DHT22;4962;50.084;8.794;2022-12-11T15:10:32;7.40;99.90
9847;DHT22;4962;50.084;8.794;2022-12-11T15:13:05;7.40;99.90
9847;DHT22;4962;50.084;8.794;2022-12-11T15:15:37;7.50;99.90
9847;DHT22;4962;50.084;8.794;2022-12-11T15:18:18;7.50;99.90
9847;DHT22;4962;50.084;8.794;2022-12-11T15:20:50;7.50;99.90
9847;DHT22;4962;50.084;8.794;2022-12-11T15:23:19;7.50;99.90
9847;DHT22;4962;50.084;8.794;2022-12-11T15:25:49;7.50;99.90
9847;DHT22;4962;50.084;8.794;2022-12-11T15:28:27;7.50;99.90
9847;DHT22;4962;50.084;8.794;2022-12-11T15:30:57;7.50;99.90
9847;DHT22;4962;50.084;8.794;2022-12-11T15:33:25;7.50;99.90
9847;DHT22;4962;50.084;8.794;2022-12-11T15:35:58;7.50;99.90
9847;DHT22;4962;50.084;8.794;2022-12-11T15:38:30;7.50;99.90
9847;DHT22;4962;50.084;8.794;2022-12-11T15:40:57;7.50;99.90
9847;DHT22;4962;50.084;8.794;2022-12-11T15:43:25;7.50;99.90
9847;DHT22;4962;50.084;8.794;2022-12-11T15:45:52;7.50;99.90
9847;DHT22;4962;50.084;8.794;2022-12-11T15:48:19;7.50;99.90
9847;DHT22;4962;50.084;8.794;2022-12-11T15:50:46;7.50;99.90
9847;DHT22;4962;50.084;8.794;2022-12-11T15:53:13;7.50;99.90
9847;DHT22;4962;50.084;8.794;2022-12-11T15:55:41;7.50;99.90
9847;DHT22;4962;50.084;8.794;2022-12-11T15:58:14;7.50;99.90
9847;DHT22;4962;50.084;8.794;2022-12-11T16:00:41;7.50;99.90
9847;DHT22;4962;50.084;8.794;2022-12-11T16:03:10;7.50;99.90
9847;DHT22;4962;50.084;8.794;2022-12-11T16:05:40;7.50;99.90
9847;DHT22;4962;50.084;8.794;2022-12-11T16:08:09;7.50;99.90
9847;DHT22;4962;50.084;8.794;2022-12-11T16:10:41;7.50;99.90
9847;DHT22;4962;50.084;8.794;2022-12-11T16:13:08;7.50;99.90
9847;DHT22;4962;50.084;8.794;2022-12-11T16:15:36;7.50;99.90
9847;DHT22;4962;50.084;8.794;2022-12-11T16:18:05;7.50;99.90
9847;DHT22;4962;50.084;8.794;2022-12-11T16:20:33;7.60;99.90
9847;DHT22;4962;50.084;8.794;2022-12-11T16:23:14;7.50;99.90
9847;DHT22;4962;50.084;8.794;2022-12-11T16:25:43;7.50;99.90
9847;DHT22;4962;50.084;8.794;2022-12-11T16:28:12;7.50;99.90
9847;DHT22;4962;50.084;8.794;2022-12-11T16:30:39;7.50;99.90
9847;DHT22;4962;50.084;8.794;2022-12-11T16:33:08;7.50;99.90
9847;DHT22;4962;50.084;8.794;2022-12-11T16:35:35;7.50;99.90
9847;DHT22;4962;50.084;8.794;2022-12-11T16:38:02;7.50;99.90
9847;DHT22;4962;50.084;8.794;2022-12-11T16:40:28;7.50;99.90
9847;DHT22;4962;50.084;8.794;2022-12-11T16:42:57;7.40;99.90
9847;DHT22;4962;50.084;8.794;2022-12-11T16:45:25;7.50;99.90
9847;DHT22;4962;50.084;8.794;2022-12-11T16:47:52;7.40;99.90